sensor_id;sensor_type;location;lat;lon;timestamp;P1;durP1;ratioP1;P2;durP2;ratioP2
6739;SDS011;3407;49.882;10.920;2023-05-10T00:03:01;4.43;;;3.33;;
6739;SDS011;3407;49.882;10.920;2023-05-10T00:07:59;3.53;;;2.97;;
6739;SDS011;3407;49.882;10.920;2023-05-10T00:12:55;2.80;;;2.57;;
6739;SDS011;3407;49.882;10.920;2023-05-10T00:17:50;3.43;;;2.73;;
6739;SDS011;3407;49.882;10.920;2023-05-10T00:22:46;3.93;;;3.17;;
6739;SDS011;3407;49.882;10.920;2023-05-10T00:27:41;4.20;;;2.90;;
6739;SDS011;3407;49.882;10.920;2023-05-10T00:32:37;5.03;;;2.80;;
6739;SDS011;3407;49.882;10.920;2023-05-10T00:37:32;5.07;;;3.23;;
6739;SDS011;3407;49.882;10.920;2023-05-10T00:42:28;5.67;;;3.40;;
6739;SDS011;3407;49.882;10.920;2023-05-10T00:47:23;3.93;;;3.40;;
6739;SDS011;3407;49.882;10.920;2023-05-10T00:52:19;4.37;;;3.50;;
6739;SDS011;3407;49.882;10.920;2023-05-10T00:57:15;4.50;;;4.10;;
6739;SDS011;3407;49.882;10.920;2023-05-10T01:02:10;5.17;;;3.73;;
6739;SDS011;3407;49.882;10.920;2023-05-10T01:07:06;6.50;;;4.23;;
6739;SDS011;3407;49.882;10.920;2023-05-10T01:12:02;5.13;;;4.63;;
6739;SDS011;3407;49.882;10.920;2023-05-10T01:16:58;6.43;;;4.30;;
6739;SDS011;3407;49.882;10.920;2023-05-10T01:37:51;6.17;;;5.47;;
6739;SDS011;3407;49.882;10.920;2023-05-10T01:42:56;7.63;;;5.80;;
6739;SDS011;3407;49.882;10.920;2023-05-10T01:48:02;8.53;;;5.57;;
6739;SDS011;3407;49.882;10.920;2023-05-10T01:53:01;7.40;;;5.40;;
6739;SDS011;3407;49.882;10.920;2023-05-10T01:58:10;7.83;;;7.10;;
6739;SDS011;3407;49.882;10.920;2023-05-10T02:03:10;7.60;;;5.67;;
6739;SDS011;3407;49.882;10.920;2023-05-10T02:08:06;7.40;;;6.10;;
6739;SDS011;3407;49.882;10.920;2023-05-10T02:13:03;9.87;;;5.80;;
6739;SDS011;3407;49.882;10.920;2023-05-10T02:18:01;7.73;;;6.03;;
6739;SDS011;3407;49.882;10.920;2023-05-10T02:22:58;6.43;;;5.77;;
6739;SDS011;3407;49.882;10.920;2023-05-10T02:27:56;7.53;;;6.40;;
6739;SDS011;3407;49.882;10.920;2023-05-10T02:32:52;6.10;;;5.50;;
6739;SDS011;3407;49.882;10.920;2023-05-10T02:37:48;9.13;;;5.93;;
6739;SDS011;3407;49.882;10.920;2023-05-10T02:42:45;7.00;;;6.37;;
6739;SDS011;3407;49.882;10.920;2023-05-10T02:47:43;7.47;;;6.33;;
6739;SDS011;3407;49.882;10.920;2023-05-10T02:52:40;10.20;;;7.17;;
6739;SDS011;3407;49.882;10.920;2023-05-10T02:58:02;8.53;;;6.97;;
6739;SDS011;3407;49.882;10.920;2023-05-10T03:02:57;10.60;;;7.80;;
6739;SDS011;3407;49.882;10.920;2023-05-10T03:07:53;7.40;;;6.60;;
6739;SDS011;3407;49.882;10.920;2023-05-10T03:18:15;6.60;;;5.97;;
6739;SDS011;3407;49.882;10.920;2023-05-10T03:23:21;7.37;;;6.60;;
6739;SDS011;3407;49.882;10.920;2023-05-10T03:28:21;8.20;;;5.87;;
6739;SDS011;3407;49.882;10.920;2023-05-10T03:33:20;7.77;;;5.70;;
6739;SDS011;3407;49.882;10.920;2023-05-10T03:38:16;8.57;;;6.37;;
6739;SDS011;3407;49.882;10.920;2023-05-10T03:43:12;6.93;;;6.07;;
6739;SDS011;3407;49.882;10.920;2023-05-10T03:48:07;9.57;;;6.93;;
6739;SDS011;3407;49.882;10.920;2023-05-10T03:53:02;8.33;;;5.80;;
6739;SDS011;3407;49.882;10.920;2023-05-10T03:57:58;5.57;;;4.97;;
6739;SDS011;3407;49.882;10.920;2023-05-10T04:02:53;5.00;;;3.97;;
6739;SDS011;3407;49.882;10.920;2023-05-10T04:07:49;4.90;;;1.90;;
6739;SDS011;3407;49.882;10.920;2023-05-10T04:12:45;1.90;;;1.80;;
6739;SDS011;3407;49.882;10.920;2023-05-10T04:17:41;1.70;;;1.60;;
6739;SDS011;3407;49.882;10.920;2023-05-10T04:22:37;1.63;;;1.53;;
6739;SDS011;3407;49.882;10.920;2023-05-10T04:27:32;1.60;;;1.50;;
6739;SDS011;3407;49.882;10.920;2023-05-10T04:32:28;1.70;;;1.50;;
6739;SDS011;3407;49.882;10.920;2023-05-10T04:37:24;1.50;;;1.40;;
6739;SDS011;3407;49.882;10.920;2023-05-10T04:42:19;1.50;;;1.40;;
6739;SDS011;3407;49.882;10.920;2023-05-10T04:47:15;1.40;;;1.30;;
6739;SDS011;3407;49.882;10.920;2023-05-10T04:52:11;1.47;;;1.37;;
6739;SDS011;3407;49.882;10.920;2023-05-10T04:57:06;1.43;;;1.33;;
6739;SDS011;3407;49.882;10.920;2023-05-10T05:02:02;1.10;;;1.10;;
6739;SDS011;3407;49.882;10.920;2023-05-10T05:06:58;1.10;;;1.10;;
6739;SDS011;3407;49.882;10.920;2023-05-10T05:11:53;0.90;;;0.90;;
6739;SDS011;3407;49.882;10.920;2023-05-10T05:16:49;1.20;;;1.10;;
6739;SDS011;3407;49.882;10.920;2023-05-10T05:21:45;1.63;;;1.53;;
6739;SDS011;3407;49.882;10.920;2023-05-10T05:26:40;0.90;;;0.90;;
6739;SDS011;3407;49.882;10.920;2023-05-10T05:31:36;1.10;;;1.10;;
6739;SDS011;3407;49.882;10.920;2023-05-10T05:36:31;1.30;;;1.30;;
6739;SDS011;3407;49.882;10.920;2023-05-10T05:41:27;1.63;;;1.43;;
6739;SDS011;3407;49.882;10.920;2023-05-10T05:46:23;1.30;;;1.20;;
6739;SDS011;3407;49.882;10.920;2023-05-10T05:51:18;1.10;;;1.10;;
6739;SDS011;3407;49.882;10.920;2023-05-10T05:56:14;1.00;;;1.00;;
6739;SDS011;3407;49.882;10.920;2023-05-10T06:01:09;1.50;;;1.40;;
6739;SDS011;3407;49.882;10.920;2023-05-10T06:06:05;1.00;;;1.00;;
6739;SDS011;3407;49.882;10.920;2023-05-10T06:11:00;0.90;;;0.90;;
6739;SDS011;3407;49.882;10.920;2023-05-10T06:15:56;0.87;;;0.87;;
6739;SDS011;3407;49.882;10.920;2023-05-10T06:20:52;0.90;;;0.90;;
6739;SDS011;3407;49.882;10.920;2023-05-10T06:25:47;1.00;;;1.00;;
6739;SDS011;3407;49.882;10.920;2023-05-10T06:30:43;1.17;;;1.17;;
6739;SDS011;3407;49.882;10.920;2023-05-10T06:35:40;1.17;;;1.13;;
6739;SDS011;3407;49.882;10.920;2023-05-10T06:40:35;1.20;;;1.10;;
6739;SDS011;3407;49.882;10.920;2023-05-10T06:45:31;1.03;;;1.03;;
6739;SDS011;3407;49.882;10.920;2023-05-10T06:50:26;1.10;;;1.10;;
6739;SDS011;3407;49.882;10.920;2023-05-10T06:55:22;0.90;;;0.90;;
6739;SDS011;3407;49.882;10.920;2023-05-10T07:00:17;1.00;;;1.00;;
6739;SDS011;3407;49.882;10.920;2023-05-10T07:05:13;0.93;;;0.93;;
6739;SDS011;3407;49.882;10.920;2023-05-10T07:10:10;1.10;;;1.00;;
6739;SDS011;3407;49.882;10.920;2023-05-10T07:15:05;0.90;;;0.90;;
6739;SDS011;3407;49.882;10.920;2023-05-10T07:20:01;0.80;;;0.80;;
6739;SDS011;3407;49.882;10.920;2023-05-10T07:24:58;1.00;;;1.00;;
6739;SDS011;3407;49.882;10.920;2023-05-10T07:29:53;0.80;;;0.80;;
6739;SDS011;3407;49.882;10.920;2023-05-10T07:34:49;1.03;;;0.80;;
6739;SDS011;3407;49.882;10.920;2023-05-10T07:39:45;2.03;;;0.80;;
6739;SDS011;3407;49.882;10.920;2023-05-10T07:44:40;1.20;;;1.07;;
6739;SDS011;3407;49.882;10.920;2023-05-10T07:49:36;1.80;;;0.77;;
6739;SDS011;3407;49.882;10.920;2023-05-10T07:54:32;2.33;;;0.97;;
6739;SDS011;3407;49.882;10.920;2023-05-10T07:59:28;3.30;;;0.80;;
6739;SDS011;3407;49.882;10.920;2023-05-10T08:04:24;1.13;;;1.07;;
6739;SDS011;3407;49.882;10.920;2023-05-10T08:09:19;2.20;;;1.10;;
6739;SDS011;3407;49.882;10.920;2023-05-10T08:14:18;0.70;;;0.70;;
6739;SDS011;3407;49.882;10.920;2023-05-10T08:19:14;1.33;;;0.70;;
6739;SDS011;3407;49.882;10.920;2023-05-10T08:24:13;4.27;;;1.47;;
6739;SDS011;3407;49.882;10.920;2023-05-10T08:29:09;1.37;;;0.70;;
6739;SDS011;3407;49.882;10.920;2023-05-10T08:34:05;0.83;;;0.83;;
6739;SDS011;3407;49.882;10.920;2023-05-10T08:39:00;0.70;;;0.70;;
6739;SDS011;3407;49.882;10.920;2023-05-10T08:43:56;4.10;;;1.77;;
6739;SDS011;3407;49.882;10.920;2023-05-10T08:48:52;1.20;;;0.73;;
6739;SDS011;3407;49.882;10.920;2023-05-10T08:53:49;1.27;;;0.90;;
6739;SDS011;3407;49.882;10.920;2023-05-10T08:58:45;1.37;;;0.90;;
6739;SDS011;3407;49.882;10.920;2023-05-10T09:03:40;0.90;;;0.80;;
6739;SDS011;3407;49.882;10.920;2023-05-10T09:08:36;0.90;;;0.90;;
6739;SDS011;3407;49.882;10.920;2023-05-10T09:13:32;1.90;;;1.10;;
6739;SDS011;3407;49.882;10.920;2023-05-10T09:18:28;1.00;;;0.80;;
6739;SDS011;3407;49.882;10.920;2023-05-10T09:28:08;0.93;;;0.90;;
6739;SDS011;3407;49.882;10.920;2023-05-10T09:33:04;1.00;;;1.00;;
6739;SDS011;3407;49.882;10.920;2023-05-10T09:38:01;0.90;;;0.90;;
6739;SDS011;3407;49.882;10.920;2023-05-10T09:42:59;1.10;;;1.10;;
6739;SDS011;3407;49.882;10.920;2023-05-10T09:47:56;1.00;;;1.00;;
6739;SDS011;3407;49.882;10.920;2023-05-10T09:52:59;1.87;;;1.20;;
6739;SDS011;3407;49.882;10.920;2023-05-10T09:57:58;0.70;;;0.70;;
6739;SDS011;3407;49.882;10.920;2023-05-10T10:02:58;1.03;;;0.80;;
6739;SDS011;3407;49.882;10.920;2023-05-10T10:07:55;0.80;;;0.80;;
6739;SDS011;3407;49.882;10.920;2023-05-10T10:12:52;1.53;;;0.97;;
6739;SDS011;3407;49.882;10.920;2023-05-10T10:17:48;1.37;;;0.83;;
6739;SDS011;3407;49.882;10.920;2023-05-10T10:22:45;2.80;;;0.80;;
6739;SDS011;3407;49.882;10.920;2023-05-10T10:38:21;1.40;;;1.30;;
6739;SDS011;3407;49.882;10.920;2023-05-10T10:43:21;1.43;;;1.00;;
6739;SDS011;3407;49.882;10.920;2023-05-10T10:48:19;2.60;;;1.30;;
6739;SDS011;3407;49.882;10.920;2023-05-10T10:53:16;1.40;;;1.30;;
6739;SDS011;3407;49.882;10.920;2023-05-10T10:58:12;1.60;;;1.40;;
6739;SDS011;3407;49.882;10.920;2023-05-10T11:03:25;3.47;;;1.43;;
6739;SDS011;3407;49.882;10.920;2023-05-10T11:08:27;2.00;;;1.67;;
6739;SDS011;3407;49.882;10.920;2023-05-10T11:13:40;2.17;;;1.40;;
6739;SDS011;3407;49.882;10.920;2023-05-10T11:18:40;0.90;;;0.90;;
6739;SDS011;3407;49.882;10.920;2023-05-10T11:23:57;0.97;;;0.97;;
6739;SDS011;3407;49.882;10.920;2023-05-10T11:28:54;3.60;;;1.10;;
6739;SDS011;3407;49.882;10.920;2023-05-10T11:33:51;3.00;;;1.10;;
6739;SDS011;3407;49.882;10.920;2023-05-10T11:38:48;1.10;;;1.00;;
6739;SDS011;3407;49.882;10.920;2023-05-10T11:43:45;2.93;;;1.40;;
6739;SDS011;3407;49.882;10.920;2023-05-10T11:48:42;2.23;;;1.20;;
6739;SDS011;3407;49.882;10.920;2023-05-10T11:53:38;1.00;;;0.90;;
6739;SDS011;3407;49.882;10.920;2023-05-10T11:58:34;0.93;;;0.90;;
6739;SDS011;3407;49.882;10.920;2023-05-10T12:03:31;0.80;;;0.80;;
6739;SDS011;3407;49.882;10.920;2023-05-10T12:08:28;2.70;;;1.07;;
6739;SDS011;3407;49.882;10.920;2023-05-10T12:13:24;1.23;;;0.80;;
6739;SDS011;3407;49.882;10.920;2023-05-10T12:18:22;1.50;;;1.20;;
6739;SDS011;3407;49.882;10.920;2023-05-10T12:23:19;1.27;;;1.10;;
6739;SDS011;3407;49.882;10.920;2023-05-10T12:28:15;1.70;;;1.40;;
6739;SDS011;3407;49.882;10.920;2023-05-10T12:33:14;2.07;;;1.00;;
6739;SDS011;3407;49.882;10.920;2023-05-10T12:43:32;2.10;;;1.00;;
6739;SDS011;3407;49.882;10.920;2023-05-10T12:48:28;1.10;;;1.00;;
6739;SDS011;3407;49.882;10.920;2023-05-10T12:53:26;0.93;;;0.80;;
6739;SDS011;3407;49.882;10.920;2023-05-10T12:58:21;1.50;;;1.10;;
6739;SDS011;3407;49.882;10.920;2023-05-10T13:03:17;1.13;;;0.90;;
6739;SDS011;3407;49.882;10.920;2023-05-10T13:08:13;3.53;;;1.10;;
6739;SDS011;3407;49.882;10.920;2023-05-10T13:13:08;2.87;;;1.60;;
6739;SDS011;3407;49.882;10.920;2023-05-10T13:18:04;3.03;;;1.03;;
6739;SDS011;3407;49.882;10.920;2023-05-10T13:23:00;0.83;;;0.83;;
6739;SDS011;3407;49.882;10.920;2023-05-10T13:27:55;2.97;;;1.00;;
6739;SDS011;3407;49.882;10.920;2023-05-10T13:32:51;0.90;;;0.90;;
6739;SDS011;3407;49.882;10.920;2023-05-10T13:37:46;0.83;;;0.80;;
6739;SDS011;3407;49.882;10.920;2023-05-10T13:42:42;2.20;;;1.47;;
6739;SDS011;3407;49.882;10.920;2023-05-10T13:47:37;0.97;;;0.97;;
6739;SDS011;3407;49.882;10.920;2023-05-10T13:52:33;2.93;;;0.90;;
6739;SDS011;3407;49.882;10.920;2023-05-10T13:57:28;2.10;;;1.10;;
6739;SDS011;3407;49.882;10.920;2023-05-10T14:02:25;1.13;;;1.10;;
6739;SDS011;3407;49.882;10.920;2023-05-10T14:07:22;1.40;;;1.30;;
6739;SDS011;3407;49.882;10.920;2023-05-10T14:12:17;1.47;;;1.30;;
6739;SDS011;3407;49.882;10.920;2023-05-10T14:17:13;3.47;;;1.57;;
6739;SDS011;3407;49.882;10.920;2023-05-10T14:22:08;4.63;;;1.60;;
6739;SDS011;3407;49.882;10.920;2023-05-10T14:27:04;2.47;;;1.60;;
6739;SDS011;3407;49.882;10.920;2023-05-10T14:32:00;1.60;;;1.50;;
6739;SDS011;3407;49.882;10.920;2023-05-10T14:36:56;1.30;;;1.20;;
6739;SDS011;3407;49.882;10.920;2023-05-10T14:41:51;5.03;;;1.57;;
6739;SDS011;3407;49.882;10.920;2023-05-10T14:46:47;1.10;;;1.00;;
6739;SDS011;3407;49.882;10.920;2023-05-10T14:51:43;1.63;;;1.17;;
6739;SDS011;3407;49.882;10.920;2023-05-10T14:56:39;1.37;;;1.20;;
6739;SDS011;3407;49.882;10.920;2023-05-10T15:01:36;2.00;;;1.20;;
6739;SDS011;3407;49.882;10.920;2023-05-10T15:06:33;1.50;;;1.40;;
6739;SDS011;3407;49.882;10.920;2023-05-10T15:11:30;1.50;;;1.40;;
6739;SDS011;3407;49.882;10.920;2023-05-10T15:16:25;1.50;;;1.20;;
6739;SDS011;3407;49.882;10.920;2023-05-10T15:21:21;3.60;;;1.30;;
6739;SDS011;3407;49.882;10.920;2023-05-10T15:26:16;1.03;;;0.90;;
6739;SDS011;3407;49.882;10.920;2023-05-10T15:31:12;1.17;;;0.80;;
6739;SDS011;3407;49.882;10.920;2023-05-10T15:36:07;1.20;;;0.83;;
6739;SDS011;3407;49.882;10.920;2023-05-10T15:41:03;0.80;;;0.80;;
6739;SDS011;3407;49.882;10.920;2023-05-10T15:45:59;2.10;;;0.80;;
6739;SDS011;3407;49.882;10.920;2023-05-10T15:50:54;2.27;;;1.70;;
6739;SDS011;3407;49.882;10.920;2023-05-10T15:55:50;0.90;;;0.90;;
6739;SDS011;3407;49.882;10.920;2023-05-10T16:00:46;3.70;;;1.10;;
6739;SDS011;3407;49.882;10.920;2023-05-10T16:05:42;2.60;;;1.03;;
6739;SDS011;3407;49.882;10.920;2023-05-10T16:10:37;1.23;;;1.10;;
6739;SDS011;3407;49.882;10.920;2023-05-10T16:15:33;1.90;;;1.20;;
6739;SDS011;3407;49.882;10.920;2023-05-10T16:20:28;1.57;;;1.10;;
6739;SDS011;3407;49.882;10.920;2023-05-10T16:25:24;1.20;;;1.10;;
6739;SDS011;3407;49.882;10.920;2023-05-10T16:30:20;1.30;;;1.20;;
6739;SDS011;3407;49.882;10.920;2023-05-10T16:35:15;2.33;;;1.40;;
6739;SDS011;3407;49.882;10.920;2023-05-10T16:40:11;2.43;;;1.30;;
6739;SDS011;3407;49.882;10.920;2023-05-10T16:45:07;1.90;;;1.50;;
6739;SDS011;3407;49.882;10.920;2023-05-10T16:50:03;1.50;;;1.40;;
6739;SDS011;3407;49.882;10.920;2023-05-10T16:55:00;3.60;;;1.50;;
6739;SDS011;3407;49.882;10.920;2023-05-10T16:59:58;1.50;;;1.40;;
6739;SDS011;3407;49.882;10.920;2023-05-10T17:04:53;2.23;;;1.93;;
6739;SDS011;3407;49.882;10.920;2023-05-10T17:09:50;1.73;;;1.57;;
6739;SDS011;3407;49.882;10.920;2023-05-10T17:14:45;4.50;;;1.57;;
6739;SDS011;3407;49.882;10.920;2023-05-10T17:19:43;1.50;;;1.40;;
6739;SDS011;3407;49.882;10.920;2023-05-10T17:24:39;3.80;;;1.37;;
6739;SDS011;3407;49.882;10.920;2023-05-10T17:29:34;2.60;;;1.33;;
6739;SDS011;3407;49.882;10.920;2023-05-10T17:34:30;1.77;;;1.67;;
6739;SDS011;3407;49.882;10.920;2023-05-10T17:39:26;2.03;;;1.50;;
6739;SDS011;3407;49.882;10.920;2023-05-10T17:44:21;3.10;;;1.83;;
6739;SDS011;3407;49.882;10.920;2023-05-10T17:49:18;2.50;;;1.83;;
6739;SDS011;3407;49.882;10.920;2023-05-10T17:54:14;2.87;;;1.77;;
6739;SDS011;3407;49.882;10.920;2023-05-10T17:59:10;2.20;;;1.83;;
6739;SDS011;3407;49.882;10.920;2023-05-10T18:04:05;2.67;;;1.93;;
6739;SDS011;3407;49.882;10.920;2023-05-10T18:09:02;2.20;;;1.70;;
6739;SDS011;3407;49.882;10.920;2023-05-10T18:13:59;2.00;;;1.90;;
6739;SDS011;3407;49.882;10.920;2023-05-10T18:18:54;3.10;;;2.00;;
6739;SDS011;3407;49.882;10.920;2023-05-10T18:23:50;4.70;;;2.30;;
6739;SDS011;3407;49.882;10.920;2023-05-10T18:28:46;3.57;;;2.27;;
6739;SDS011;3407;49.882;10.920;2023-05-10T18:33:41;2.57;;;2.37;;
6739;SDS011;3407;49.882;10.920;2023-05-10T18:38:37;2.37;;;2.17;;
6739;SDS011;3407;49.882;10.920;2023-05-10T18:43:32;5.10;;;2.50;;
6739;SDS011;3407;49.882;10.920;2023-05-10T18:48:29;4.17;;;2.37;;
6739;SDS011;3407;49.882;10.920;2023-05-10T18:53:24;2.97;;;2.67;;
6739;SDS011;3407;49.882;10.920;2023-05-10T18:58:20;4.17;;;2.67;;
6739;SDS011;3407;49.882;10.920;2023-05-10T19:03:16;3.30;;;3.00;;
6739;SDS011;3407;49.882;10.920;2023-05-10T19:08:11;2.87;;;2.63;;
6739;SDS011;3407;49.882;10.920;2023-05-10T19:13:07;3.70;;;2.97;;
6739;SDS011;3407;49.882;10.920;2023-05-10T19:18:02;4.33;;;3.27;;
6739;SDS011;3407;49.882;10.920;2023-05-10T19:22:58;4.73;;;3.03;;
6739;SDS011;3407;49.882;10.920;2023-05-10T19:27:54;5.80;;;3.33;;
6739;SDS011;3407;49.882;10.920;2023-05-10T19:32:51;3.60;;;3.27;;
6739;SDS011;3407;49.882;10.920;2023-05-10T19:37:46;8.37;;;4.13;;
6739;SDS011;3407;49.882;10.920;2023-05-10T19:42:43;3.60;;;3.27;;
6739;SDS011;3407;49.882;10.920;2023-05-10T19:47:39;4.20;;;3.90;;
6739;SDS011;3407;49.882;10.920;2023-05-10T19:52:35;4.37;;;3.83;;
6739;SDS011;3407;49.882;10.920;2023-05-10T19:57:31;4.43;;;3.27;;
6739;SDS011;3407;49.882;10.920;2023-05-10T20:02:26;4.93;;;3.23;;
6739;SDS011;3407;49.882;10.920;2023-05-10T20:07:22;3.87;;;3.13;;
6739;SDS011;3407;49.882;10.920;2023-05-10T20:12:17;4.40;;;3.70;;
6739;SDS011;3407;49.882;10.920;2023-05-10T20:17:13;3.60;;;3.30;;
6739;SDS011;3407;49.882;10.920;2023-05-10T20:22:08;5.33;;;3.60;;
6739;SDS011;3407;49.882;10.920;2023-05-10T20:27:04;4.00;;;3.33;;
6739;SDS011;3407;49.882;10.920;2023-05-10T20:32:00;3.83;;;3.50;;
6739;SDS011;3407;49.882;10.920;2023-05-10T20:36:55;4.93;;;3.50;;
6739;SDS011;3407;49.882;10.920;2023-05-10T20:41:52;3.47;;;3.10;;
6739;SDS011;3407;49.882;10.920;2023-05-10T20:46:48;4.17;;;3.70;;
6739;SDS011;3407;49.882;10.920;2023-05-10T20:51:44;4.00;;;3.60;;
6739;SDS011;3407;49.882;10.920;2023-05-10T20:56:39;4.77;;;3.57;;
6739;SDS011;3407;49.882;10.920;2023-05-10T21:01:35;4.10;;;3.13;;
6739;SDS011;3407;49.882;10.920;2023-05-10T21:06:30;6.87;;;4.03;;
6739;SDS011;3407;49.882;10.920;2023-05-10T21:11:26;7.83;;;4.43;;
6739;SDS011;3407;49.882;10.920;2023-05-10T21:16:21;8.20;;;4.70;;
6739;SDS011;3407;49.882;10.920;2023-05-10T21:21:17;4.73;;;4.33;;
6739;SDS011;3407;49.882;10.920;2023-05-10T21:26:12;9.03;;;5.07;;
6739;SDS011;3407;49.882;10.920;2023-05-10T21:31:08;7.40;;;4.73;;
6739;SDS011;3407;49.882;10.920;2023-05-10T21:36:04;7.80;;;5.03;;
6739;SDS011;3407;49.882;10.920;2023-05-10T21:41:00;5.60;;;4.60;;
6739;SDS011;3407;49.882;10.920;2023-05-10T21:45:56;9.07;;;5.93;;
6739;SDS011;3407;49.882;10.920;2023-05-10T21:50:51;6.70;;;5.53;;
6739;SDS011;3407;49.882;10.920;2023-05-10T21:55:47;10.60;;;5.97;;
6739;SDS011;3407;49.882;10.920;2023-05-10T22:00:42;7.73;;;5.47;;
6739;SDS011;3407;49.882;10.920;2023-05-10T22:05:38;9.13;;;5.70;;
6739;SDS011;3407;49.882;10.920;2023-05-10T22:10:33;6.30;;;5.70;;
6739;SDS011;3407;49.882;10.920;2023-05-10T22:15:29;6.93;;;6.23;;
6739;SDS011;3407;49.882;10.920;2023-05-10T22:20:26;6.23;;;5.63;;
6739;SDS011;3407;49.882;10.920;2023-05-10T22:25:21;6.80;;;5.37;;
6739;SDS011;3407;49.882;10.920;2023-05-10T22:30:17;6.40;;;5.80;;
6739;SDS011;3407;49.882;10.920;2023-05-10T22:35:13;9.70;;;6.43;;
6739;SDS011;3407;49.882;10.920;2023-05-10T22:40:09;8.43;;;6.33;;
6739;SDS011;3407;49.882;10.920;2023-05-10T22:45:05;8.13;;;7.30;;
6739;SDS011;3407;49.882;10.920;2023-05-10T22:50:01;9.47;;;6.87;;
6739;SDS011;3407;49.882;10.920;2023-05-10T22:55:00;8.90;;;7.03;;
6739;SDS011;3407;49.882;10.920;2023-05-10T22:59:55;10.10;;;7.27;;
6739;SDS011;3407;49.882;10.920;2023-05-10T23:04:51;9.30;;;7.13;;
6739;SDS011;3407;49.882;10.920;2023-05-10T23:09:46;9.37;;;7.27;;
6739;SDS011;3407;49.882;10.920;2023-05-10T23:14:42;8.77;;;7.03;;
6739;SDS011;3407;49.882;10.920;2023-05-10T23:19:40;9.20;;;7.73;;
6739;SDS011;3407;49.882;10.920;2023-05-10T23:24:36;8.60;;;7.00;;
6739;SDS011;3407;49.882;10.920;2023-05-10T23:29:32;7.50;;;6.77;;
6739;SDS011;3407;49.882;10.920;2023-05-10T23:34:28;7.90;;;7.10;;
6739;SDS011;3407;49.882;10.920;2023-05-10T23:39:24;10.20;;;6.43;;
6739;SDS011;3407;49.882;10.920;2023-05-10T23:44:20;8.17;;;6.70;;
6739;SDS011;3407;49.882;10.920;2023-05-10T23:49:15;7.13;;;6.30;;
6739;SDS011;3407;49.882;10.920;2023-05-10T23:54:11;7.70;;;6.80;;
6739;SDS011;3407;49.882;10.920;2023-05-10T23:59:06;8.47;;;5.90;;
